HZVE7 OEJN-OERK
Flight info
| Callsign | HZVE7 |
|---|---|
| Flight time | N/A |
| Altitude | 31000 |
| Route | EGREP T532 ORDEM |
| Aircraft | SF50/L-BDGRSWY/LB2U2 |
Departure
| Time | 2025-10-27 19:01 |
|---|---|
| Airport | King Abdulaziz International Airport (OEJN) |
Arrival
| Time | N/A |
|---|---|
| Airport | King Khalid International Airport (OERK) |
| Time | Latitude | Longitude | Altitude | Speed | Heading |
|---|---|---|---|---|---|
| 2025-10-27 18:23 | 21.69380 | 39.13794 | 27 ft | 0 kts | 72° |
| 2025-10-27 18:41 | 21.69374 | 39.13769 | 26 ft | 3 kts | 79° |
| 2025-10-27 18:42 | 21.69383 | 39.13738 | 26 ft | 1 kts | 160° |
| 2025-10-27 18:42 | 21.69387 | 39.13737 | 26 ft | 0 kts | 160° |
| 2025-10-27 18:46 | 21.69315 | 39.13754 | 26 ft | 7 kts | 216° |
| 2025-10-27 18:47 | 21.69269 | 39.13657 | 26 ft | 7 kts | 250° |
| 2025-10-27 18:47 | 21.69233 | 39.13543 | 26 ft | 7 kts | 250° |
| 2025-10-27 18:48 | 21.69190 | 39.13441 | 27 ft | 9 kts | 207° |
| 2025-10-27 18:49 | 21.68968 | 39.13516 | 26 ft | 15 kts | 161° |
| 2025-10-27 18:49 | 21.68810 | 39.13580 | 26 ft | 13 kts | 158° |
| 2025-10-27 18:49 | 21.68703 | 39.13620 | 26 ft | 19 kts | 159° |
| 2025-10-27 18:50 | 21.68434 | 39.13726 | 26 ft | 19 kts | 158° |
| 2025-10-27 18:50 | 21.68255 | 39.13829 | 26 ft | 12 kts | 99° |
| 2025-10-27 18:51 | 21.68306 | 39.14003 | 26 ft | 15 kts | 70° |
| 2025-10-27 18:51 | 21.68391 | 39.14259 | 27 ft | 18 kts | 70° |
| 2025-10-27 18:52 | 21.68481 | 39.14519 | 27 ft | 19 kts | 69° |
| 2025-10-27 18:53 | 21.68628 | 39.14937 | 27 ft | 21 kts | 69° |
| 2025-10-27 18:53 | 21.68710 | 39.15174 | 27 ft | 13 kts | 69° |
| 2025-10-27 18:53 | 21.68712 | 39.15245 | 26 ft | 10 kts | 132° |
| 2025-10-27 18:54 | 21.68461 | 39.15353 | 26 ft | 27 kts | 159° |
| 2025-10-27 18:54 | 21.67982 | 39.15542 | 27 ft | 25 kts | 159° |
| 2025-10-27 18:55 | 21.67828 | 39.15604 | 28 ft | 25 kts | 160° |
| 2025-10-27 18:55 | 21.67423 | 39.15763 | 27 ft | 29 kts | 159° |
| 2025-10-27 18:56 | 21.67128 | 39.15881 | 27 ft | 21 kts | 160° |
| 2025-10-27 18:56 | 21.66776 | 39.16020 | 27 ft | 19 kts | 159° |
| 2025-10-27 18:57 | 21.66542 | 39.16113 | 28 ft | 20 kts | 160° |
| 2025-10-27 18:57 | 21.66410 | 39.16162 | 28 ft | 19 kts | 160° |
| 2025-10-27 18:58 | 21.66199 | 39.16255 | 27 ft | 13 kts | 126° |
| 2025-10-27 18:58 | 21.66243 | 39.16438 | 27 ft | 9 kts | 351° |
| 2025-10-27 18:59 | 21.66559 | 39.16314 | 29 ft | 73 kts | 340° |
| 2025-10-27 18:59 | 21.67826 | 39.15808 | 429 ft | 113 kts | 339° |
| 2025-10-27 19:00 | 21.69655 | 39.15093 | 1029 ft | 163 kts | 341° |
| 2025-10-27 19:00 | 21.73470 | 39.13589 | 2086 ft | 212 kts | 340° |
| 2025-10-27 19:01 | 21.74872 | 39.13036 | 2585 ft | 220 kts | 339° |
| 2025-10-27 19:01 | 21.79864 | 39.11067 | 3061 ft | 272 kts | 339° |
| 2025-10-27 19:02 | 21.81636 | 39.10365 | 3102 ft | 274 kts | 339° |
| 2025-10-27 19:02 | 21.87002 | 39.08243 | 3513 ft | 275 kts | 339° |
| 2025-10-27 19:03 | 21.90573 | 39.06765 | 3709 ft | 276 kts | 335° |
| 2025-10-27 19:03 | 21.94061 | 39.05086 | 3778 ft | 276 kts | 336° |
| 2025-10-27 19:04 | 21.99325 | 39.02575 | 3846 ft | 276 kts | 335° |
| 2025-10-27 19:04 | 22.01082 | 39.01736 | 3883 ft | 276 kts | 336° |
| 2025-10-27 19:05 | 22.02841 | 39.00898 | 3906 ft | 276 kts | 335° |
| 2025-10-27 19:05 | 22.08113 | 38.98375 | 4153 ft | 276 kts | 336° |
| 2025-10-27 19:06 | 22.11639 | 38.96685 | 4336 ft | 277 kts | 336° |
| 2025-10-27 19:06 | 22.15284 | 38.95690 | 4840 ft | 265 kts | 0° |
| 2025-10-27 19:07 | 22.18697 | 38.96716 | 5537 ft | 254 kts | 31° |
| 2025-10-27 19:07 | 22.21364 | 38.99108 | 6201 ft | 253 kts | 43° |
| 2025-10-27 19:08 | 22.25300 | 39.02670 | 6277 ft | 284 kts | 39° |
| 2025-10-27 19:08 | 22.26800 | 39.03868 | 7488 ft | 228 kts | 36° |
| 2025-10-27 19:09 | 22.29687 | 39.05778 | 7217 ft | 295 kts | 29° |
| 2025-10-27 19:09 | 22.32666 | 39.08542 | 7883 ft | 291 kts | 64° |
| 2025-10-27 19:10 | 22.32627 | 39.12832 | 8168 ft | 297 kts | 109° |
| 2025-10-27 19:10 | 22.31674 | 39.17052 | 8982 ft | 286 kts | 83° |
| 2025-10-27 19:11 | 22.32793 | 39.21043 | 9083 ft | 285 kts | 73° |
| 2025-10-27 19:11 | 22.33313 | 39.23151 | 9081 ft | 283 kts | 78° |
| 2025-10-27 19:12 | 22.34156 | 39.27298 | 9086 ft | 282 kts | 77° |
| 2025-10-27 19:12 | 22.35522 | 39.33390 | 9444 ft | 269 kts | 77° |
| 2025-10-27 19:13 | 22.36376 | 39.37260 | 9941 ft | 261 kts | 77° |
| 2025-10-27 19:13 | 22.37206 | 39.41023 | 10406 ft | 257 kts | 77° |
| 2025-10-27 19:14 | 22.38031 | 39.44762 | 10877 ft | 255 kts | 78° |
| 2025-10-27 19:14 | 22.38851 | 39.48497 | 11361 ft | 255 kts | 78° |
| 2025-10-27 19:15 | 22.39673 | 39.52235 | 11849 ft | 256 kts | 78° |
| 2025-10-27 19:15 | 22.40493 | 39.55985 | 12351 ft | 257 kts | 78° |
| 2025-10-27 19:16 | 22.41732 | 39.61642 | 13065 ft | 261 kts | 78° |
| 2025-10-27 19:16 | 22.42158 | 39.63590 | 13076 ft | 271 kts | 78° |
| 2025-10-27 19:17 | 22.43044 | 39.67646 | 13082 ft | 282 kts | 78° |
| 2025-10-27 19:17 | 22.43953 | 39.71797 | 13102 ft | 288 kts | 78° |
| 2025-10-27 19:18 | 22.44880 | 39.76043 | 13116 ft | 292 kts | 78° |
| 2025-10-27 19:18 | 22.45810 | 39.80317 | 13134 ft | 293 kts | 78° |
| 2025-10-27 19:19 | 22.47497 | 39.84308 | 13132 ft | 297 kts | 52° |
| 2025-10-27 19:19 | 22.50544 | 39.87350 | 13148 ft | 299 kts | 42° |
| 2025-10-27 19:20 | 22.55218 | 39.91824 | 13181 ft | 299 kts | 42° |
| 2025-10-27 19:20 | 22.56992 | 39.92979 | 13154 ft | 301 kts | 20° |
| 2025-10-27 19:21 | 22.61024 | 39.92493 | 13099 ft | 300 kts | 328° |
| 2025-10-27 19:21 | 22.63214 | 39.88869 | 13036 ft | 294 kts | 276° |
| 2025-10-27 19:22 | 22.62866 | 39.84547 | 12984 ft | 291 kts | 259° |
| 2025-10-27 19:22 | 22.60837 | 39.80923 | 12729 ft | 290 kts | 213° |
| 2025-10-27 19:23 | 22.56949 | 39.80025 | 12515 ft | 289 kts | 182° |
| 2025-10-27 19:23 | 22.53095 | 39.79505 | 12320 ft | 291 kts | 193° |
| 2025-10-27 19:24 | 22.51190 | 39.78787 | 12214 ft | 293 kts | 204° |
| 2025-10-27 19:25 | 22.45809 | 39.75664 | 11906 ft | 293 kts | 204° |